createdAt,value
2017-07-23T00:01:16.184Z,98417.72
2017-07-23T00:03:45.636Z,98416.77
2017-07-23T00:06:15.075Z,98417.88
2017-07-23T00:08:44.523Z,98411.47
2017-07-23T00:11:13.969Z,98415.34
2017-07-23T00:13:43.408Z,98418.63
2017-07-23T00:16:12.877Z,98425.41
2017-07-23T00:18:42.384Z,98423.81
2017-07-23T00:21:11.836Z,98421.91
2017-07-23T00:23:41.289Z,98418.77
2017-07-23T00:26:10.737Z,98427.02
2017-07-23T00:28:40.177Z,98433.12
2017-07-23T00:31:09.631Z,98429.63
2017-07-23T00:33:39.071Z,98425.50
2017-07-23T00:36:08.533Z,98423.52
2017-07-23T00:38:37.964Z,98424.12
2017-07-23T00:41:07.412Z,98429.69
2017-07-23T00:43:36.878Z,98436.59
2017-07-23T00:46:06.337Z,98433.98
2017-07-23T00:48:35.781Z,98431.59
2017-07-23T00:51:05.225Z,98426.09
2017-07-23T00:53:34.704Z,98424.55
2017-07-23T00:56:04.134Z,98423.99
2017-07-23T00:58:33.588Z,98429.97
2017-07-23T01:01:03.831Z,98429.97
2017-07-23T01:03:33.265Z,98424.66
2017-07-23T01:06:02.716Z,98426.69
2017-07-23T01:08:31.984Z,98418.23
2017-07-23T01:11:01.440Z,98415.80
2017-07-23T01:13:30.873Z,98416.36
2017-07-23T01:16:00.323Z,98415.66
2017-07-23T01:18:29.781Z,98415.03
2017-07-23T01:20:59.222Z,98408.10
2017-07-23T01:23:28.661Z,98407.63
2017-07-23T01:25:58.098Z,98407.33
2017-07-23T01:28:27.548Z,98413.05
2017-07-23T01:30:57.013Z,98411.91
2017-07-23T01:33:26.465Z,98414.02
2017-07-23T01:35:55.931Z,98420.17
2017-07-23T01:38:25.380Z,98418.73
2017-07-23T01:40:54.811Z,98424.82
2017-07-23T01:43:24.260Z,98417.70
2017-07-23T01:45:53.384Z,98408.03
2017-07-23T01:48:22.810Z,98409.03
2017-07-23T01:50:52.245Z,98397.70
2017-07-23T01:53:21.685Z,98386.78
2017-07-23T01:55:50.788Z,98392.09
2017-07-23T01:58:19.875Z,98392.54
2017-07-23T02:00:49.337Z,98393.13
2017-07-23T02:03:18.776Z,98395.23
2017-07-23T02:05:48.222Z,98399.84
2017-07-23T02:08:17.656Z,98404.06
2017-07-23T02:10:47.111Z,98397.30
2017-07-23T02:13:16.648Z,98392.13
2017-07-23T02:15:46.080Z,98388.31
2017-07-23T02:18:15.528Z,98394.09
2017-07-23T02:20:44.968Z,98399.52
2017-07-23T02:23:14.434Z,98395.59
2017-07-23T02:25:43.896Z,98407.59
2017-07-23T02:28:14.155Z,98401.89
2017-07-23T02:30:43.613Z,98404.77
2017-07-23T02:33:13.749Z,98404.37
2017-07-23T02:35:43.255Z,98401.81
2017-07-23T02:38:12.697Z,98405.66
2017-07-23T02:40:42.148Z,98406.47
2017-07-23T02:43:11.588Z,98409.84
2017-07-23T02:45:41.073Z,98414.75
2017-07-23T02:48:11.196Z,98412.78
2017-07-23T02:50:40.632Z,98408.75
2017-07-23T02:53:10.100Z,98409.89
2017-07-23T02:55:39.555Z,98410.95
2017-07-23T02:58:08.994Z,98415.31
2017-07-23T03:00:38.442Z,98400.75
2017-07-23T03:03:07.984Z,98401.71
2017-07-23T03:05:37.071Z,98401.16
2017-07-23T03:08:07.361Z,98400.14
2017-07-23T03:10:36.812Z,98405.38
2017-07-23T03:13:06.252Z,98420.85
2017-07-23T03:15:35.700Z,98429.16
2017-07-23T03:18:05.151Z,98440.88
2017-07-23T03:20:34.593Z,98447.42
2017-07-23T03:23:03.904Z,98458.21
2017-07-23T03:25:33.157Z,98471.89
2017-07-23T03:28:02.593Z,98483.64
2017-07-23T03:30:32.038Z,98489.75
2017-07-23T03:33:01.476Z,98495.47
2017-07-23T03:35:31.034Z,98502.97
2017-07-23T03:38:00.458Z,98506.44
2017-07-23T03:40:29.900Z,98535.47
2017-07-23T03:42:59.351Z,98547.61
2017-07-23T03:45:28.802Z,98552.27
2017-07-23T03:47:58.242Z,98573.16
2017-07-23T03:50:27.681Z,98564.88
2017-07-23T03:52:57.125Z,98563.88
2017-07-23T03:55:26.579Z,98601.92
2017-07-23T03:57:56.017Z,98611.19
2017-07-23T04:00:25.517Z,98595.59
2017-07-23T04:02:54.957Z,98597.78
2017-07-23T04:05:24.570Z,98602.31
2017-07-23T04:07:54.032Z,98610.19
2017-07-23T04:10:23.505Z,98613.03
2017-07-23T04:12:52.940Z,98625.05
2017-07-23T04:15:22.421Z,98627.41
2017-07-23T04:17:51.860Z,98621.33
2017-07-23T04:20:21.355Z,98615.46
2017-07-23T04:22:50.925Z,98627.98
2017-07-23T04:25:20.409Z,98637.77
2017-07-23T04:27:49.866Z,98652.56
2017-07-23T04:30:19.342Z,98664.59
2017-07-23T04:32:48.788Z,98678.69
2017-07-23T04:35:18.285Z,98691.42
2017-07-23T04:37:47.718Z,98703.36
2017-07-23T04:40:17.336Z,98703.34
2017-07-23T04:42:46.756Z,98707.58
2017-07-23T04:45:16.273Z,98705.45
2017-07-23T04:47:45.703Z,98728.87
2017-07-23T04:50:15.208Z,98735.37
2017-07-23T04:52:44.644Z,98737.98
2017-07-23T04:55:14.146Z,98752.03
2017-07-23T04:57:43.668Z,98750.34
2017-07-23T05:00:13.142Z,98770.14
2017-07-23T05:02:42.590Z,98772.62
2017-07-23T05:05:12.105Z,98765.30
2017-07-23T05:07:41.544Z,98763.75
2017-07-23T05:10:11.037Z,98754.52
2017-07-23T05:12:40.471Z,98767.66
2017-07-23T05:15:09.949Z,98750.91
2017-07-23T05:17:39.397Z,98747.28
2017-07-23T05:20:08.885Z,98739.30
2017-07-23T05:22:38.321Z,98737.11
2017-07-23T05:25:08.045Z,98742.12
2017-07-23T05:27:37.652Z,98751.73
2017-07-23T05:30:07.568Z,98740.34
2017-07-23T05:32:37.050Z,98733.95
2017-07-23T05:35:07.075Z,98730.44
2017-07-23T05:37:36.576Z,98717.35
2017-07-23T05:40:06.068Z,98715.84
2017-07-23T05:42:35.508Z,98707.00
2017-07-23T05:45:05.091Z,98711.54
2017-07-23T05:47:34.529Z,98718.08
2017-07-23T05:50:04.011Z,98712.41
2017-07-23T05:52:33.451Z,98721.56
2017-07-23T05:55:02.928Z,98703.55
2017-07-23T05:57:32.370Z,98695.31
2017-07-23T06:00:02.071Z,98687.38
2017-07-23T06:02:31.322Z,98678.31
2017-07-23T06:05:00.768Z,98678.50
2017-07-23T06:07:30.216Z,98666.58
2017-07-23T06:09:59.690Z,98653.60
2017-07-23T06:12:29.142Z,98649.63
2017-07-23T06:14:58.577Z,98642.27
2017-07-23T06:17:28.011Z,98635.94
2017-07-23T06:19:57.462Z,98635.64
2017-07-23T06:22:26.943Z,98634.98
2017-07-23T06:24:56.368Z,98636.88
2017-07-23T06:27:25.804Z,98644.25
2017-07-23T06:29:55.253Z,98660.58
2017-07-23T06:32:24.511Z,98671.31
2017-07-23T06:34:53.983Z,98688.26
2017-07-23T06:37:23.508Z,98698.78
2017-07-23T06:39:52.944Z,98688.58
2017-07-23T06:42:22.402Z,98680.20
2017-07-23T06:44:51.850Z,98683.17
2017-07-23T06:47:23.070Z,98685.41
2017-07-23T06:49:52.496Z,98675.48
2017-07-23T06:52:21.952Z,98681.70
2017-07-23T06:54:51.408Z,98682.92
2017-07-23T06:57:20.860Z,98697.06
2017-07-23T06:59:50.656Z,98706.77
2017-07-23T07:02:20.449Z,98712.01
2017-07-23T07:04:50.469Z,98716.52
2017-07-23T07:07:20.025Z,98722.98
2017-07-23T07:09:49.454Z,98710.14
2017-07-23T07:12:19.137Z,98694.17
2017-07-23T07:14:49.061Z,98683.17
2017-07-23T07:17:18.597Z,98693.16
2017-07-23T07:19:48.316Z,98709.06
2017-07-23T07:22:18.313Z,98705.34
2017-07-23T07:24:48.108Z,98698.14
2017-07-23T07:27:17.653Z,98687.63
2017-07-23T07:29:47.114Z,98692.52
2017-07-23T07:32:17.239Z,98697.83
2017-07-23T07:34:46.839Z,98694.88
2017-07-23T07:37:16.288Z,98700.02
2017-07-23T07:39:45.757Z,98715.91
2017-07-23T07:42:15.018Z,98725.16
2017-07-23T07:44:45.089Z,98714.02
2017-07-23T07:47:14.895Z,98716.83
2017-07-23T07:49:44.332Z,98717.08
2017-07-23T07:52:14.429Z,98717.00
2017-07-23T07:54:44.831Z,98713.54
2017-07-23T07:57:15.034Z,98700.53
2017-07-23T07:59:45.112Z,98694.88
2017-07-23T08:02:14.713Z,98697.92
2017-07-23T08:04:45.561Z,98700.26
2017-07-23T08:07:15.295Z,98685.75
2017-07-23T08:09:44.740Z,98692.59
2017-07-23T08:12:15.491Z,98691.14
2017-07-23T08:14:46.105Z,98686.50
2017-07-23T08:17:15.673Z,98684.59
2017-07-23T08:19:45.534Z,98685.30
2017-07-23T08:22:15.952Z,98684.59
2017-07-23T08:24:46.474Z,98686.20
2017-07-23T08:27:16.002Z,98690.34
2017-07-23T08:29:45.764Z,98692.01
2017-07-23T08:32:15.347Z,98689.53
2017-07-23T08:34:46.441Z,98691.79
2017-07-23T08:37:17.385Z,98695.95
2017-07-23T08:39:47.228Z,98706.77
2017-07-23T08:42:16.941Z,98700.92
2017-07-23T08:44:46.370Z,98701.83
2017-07-23T08:47:16.578Z,98703.38
2017-07-23T08:49:46.506Z,98703.05
2017-07-23T08:52:16.384Z,98702.16
2017-07-23T08:54:46.244Z,98708.02
2017-07-23T08:57:15.692Z,98707.86
2017-07-23T08:59:45.137Z,98708.41
2017-07-23T09:02:14.597Z,98704.53
2017-07-23T09:04:44.246Z,98695.48
2017-07-23T09:07:14.007Z,98704.70
2017-07-23T09:09:43.915Z,98698.01
2017-07-23T09:12:13.841Z,98698.30
2017-07-23T09:14:43.718Z,98695.33
2017-07-23T09:17:13.422Z,98698.25
2017-07-23T09:19:43.584Z,98702.73
2017-07-23T09:22:13.049Z,98718.16
2017-07-23T09:24:42.470Z,98718.66
2017-07-23T09:27:11.926Z,98722.33
2017-07-23T09:29:41.365Z,98717.05
2017-07-23T09:32:10.848Z,98701.87
2017-07-23T09:34:40.325Z,98704.76
2017-07-23T09:37:09.793Z,98702.42
2017-07-23T09:39:39.236Z,98708.03
2017-07-23T09:42:08.671Z,98713.66
2017-07-23T09:44:38.151Z,98713.64
2017-07-23T09:47:07.605Z,98711.06
2017-07-23T09:49:37.041Z,98714.48
2017-07-23T09:52:06.492Z,98721.30
2017-07-23T09:54:35.943Z,98720.40
2017-07-23T09:57:05.375Z,98727.08
2017-07-23T09:59:34.836Z,98721.00
2017-07-23T10:02:04.305Z,98717.29
2017-07-23T10:04:33.756Z,98713.17
2017-07-23T10:07:03.189Z,98718.91
2017-07-23T10:09:32.646Z,98719.97
2017-07-23T10:12:02.187Z,98713.34
2017-07-23T10:14:32.313Z,98715.77
2017-07-23T10:17:01.766Z,98722.94
2017-07-23T10:19:31.215Z,98723.32
2017-07-23T10:22:00.509Z,98715.85
2017-07-23T10:24:29.951Z,98711.64
2017-07-23T10:26:59.419Z,98708.17
2017-07-23T10:29:28.887Z,98707.89
2017-07-23T10:31:58.349Z,98711.41
2017-07-23T10:34:27.784Z,98709.98
2017-07-23T10:36:57.272Z,98702.94
2017-07-23T10:39:26.724Z,98701.04
2017-07-23T10:41:56.168Z,98694.45
2017-07-23T10:44:25.611Z,98704.23
2017-07-23T10:46:55.083Z,98696.00
2017-07-23T10:49:24.517Z,98699.78
2017-07-23T10:51:53.981Z,98700.68
2017-07-23T10:54:23.441Z,98699.79
2017-07-23T10:56:52.901Z,98704.48
2017-07-23T10:59:22.355Z,98704.97
2017-07-23T11:01:51.788Z,98701.24
2017-07-23T11:04:21.229Z,98707.52
2017-07-23T11:06:50.765Z,98710.99
2017-07-23T11:09:20.205Z,98709.14
2017-07-23T11:11:49.653Z,98704.44
2017-07-23T11:14:19.089Z,98703.30
2017-07-23T11:16:48.528Z,98697.38
2017-07-23T11:19:17.978Z,98705.96
2017-07-23T11:21:47.430Z,98706.77
2017-07-23T11:24:16.884Z,98709.00
2017-07-23T11:26:46.327Z,98699.95
2017-07-23T11:29:15.769Z,98707.13
2017-07-23T11:31:45.234Z,98708.23
2017-07-23T11:34:14.678Z,98707.69
2017-07-23T11:36:44.133Z,98709.05
2017-07-23T11:39:13.407Z,98699.58
2017-07-23T11:41:42.828Z,98706.77
2017-07-23T11:44:12.298Z,98710.39
2017-07-23T11:46:41.760Z,98706.01
2017-07-23T11:49:11.193Z,98702.84
2017-07-23T11:51:40.641Z,98710.94
2017-07-23T11:54:10.105Z,98707.91
2017-07-23T11:56:39.552Z,98700.69
2017-07-23T11:59:08.993Z,98704.09
2017-07-23T12:01:38.449Z,98696.58
2017-07-23T12:04:07.891Z,98681.11
2017-07-23T12:06:37.340Z,98684.56
2017-07-23T12:09:06.776Z,98684.08
2017-07-23T12:11:36.271Z,98674.47
2017-07-23T12:14:05.720Z,98672.47
2017-07-23T12:16:35.153Z,98675.68
2017-07-23T12:19:04.405Z,98663.08
2017-07-23T12:21:33.852Z,98663.89
2017-07-23T12:24:03.335Z,98666.55
2017-07-23T12:26:32.783Z,98662.23
2017-07-23T12:29:02.234Z,98664.50
2017-07-23T12:31:31.681Z,98662.95
2017-07-23T12:34:01.146Z,98655.78
2017-07-23T12:36:30.585Z,98659.23
2017-07-23T12:39:00.043Z,98651.81
2017-07-23T12:41:29.476Z,98655.95
2017-07-23T12:43:58.958Z,98656.80
2017-07-23T12:46:28.412Z,98642.52
2017-07-23T12:48:57.853Z,98637.41
2017-07-23T12:51:27.325Z,98625.86
2017-07-23T12:53:56.805Z,98633.06
2017-07-23T12:56:26.261Z,98621.56
2017-07-23T12:58:55.717Z,98623.22
2017-07-23T13:01:25.165Z,98620.20
2017-07-23T13:03:54.652Z,98622.66
2017-07-23T13:06:24.096Z,98625.30
2017-07-23T13:08:53.546Z,98629.80
2017-07-23T13:11:22.998Z,98625.11
2017-07-23T13:13:52.437Z,98613.34
2017-07-23T13:16:21.912Z,98619.56
2017-07-23T13:18:51.379Z,98617.89
2017-07-23T13:21:20.838Z,98614.17
2017-07-23T13:23:50.272Z,98618.83
2017-07-23T13:26:19.719Z,98619.46
2017-07-23T13:28:49.226Z,98609.70
2017-07-23T13:31:18.688Z,98610.08
2017-07-23T13:33:48.164Z,98609.30
2017-07-23T13:36:17.626Z,98624.98
2017-07-23T13:38:47.064Z,98596.46
2017-07-23T13:41:16.513Z,98588.36
2017-07-23T13:43:45.964Z,98575.27
2017-07-23T13:46:15.399Z,98571.97
2017-07-23T13:48:44.845Z,98573.28
2017-07-23T13:51:14.301Z,98574.16
2017-07-23T13:53:43.742Z,98571.61
2017-07-23T13:56:13.186Z,98563.97
2017-07-23T13:58:42.630Z,98568.39
2017-07-23T14:01:12.074Z,98560.73
2017-07-23T14:03:41.522Z,98554.47
2017-07-23T14:06:10.957Z,98557.38
2017-07-23T14:08:40.414Z,98555.55
2017-07-23T14:11:09.872Z,98549.80
2017-07-23T14:13:39.309Z,98547.66
2017-07-23T14:16:08.754Z,98540.45
2017-07-23T14:18:38.213Z,98548.45
2017-07-23T14:21:07.674Z,98551.26
2017-07-23T14:23:37.118Z,98552.63
2017-07-23T14:26:06.563Z,98541.85
2017-07-23T14:28:36.030Z,98549.80
2017-07-23T14:31:05.505Z,98539.15
2017-07-23T14:33:34.953Z,98546.20
2017-07-23T14:36:04.415Z,98550.17
2017-07-23T14:38:33.869Z,98541.05
2017-07-23T14:41:03.303Z,98537.91
2017-07-23T14:43:32.753Z,98540.30
2017-07-23T14:46:02.191Z,98529.90
2017-07-23T14:48:31.629Z,98536.94
2017-07-23T14:51:01.092Z,98521.03
2017-07-23T14:53:30.659Z,98526.88
2017-07-23T14:56:00.169Z,98521.84
2017-07-23T14:58:29.616Z,98511.34
2017-07-23T15:00:59.069Z,98510.33
2017-07-23T15:03:28.523Z,98510.84
2017-07-23T15:05:57.962Z,98521.71
2017-07-23T15:08:27.409Z,98510.40
2017-07-23T15:10:56.851Z,98509.03
2017-07-23T15:13:26.296Z,98502.83
2017-07-23T15:15:55.741Z,98508.84
2017-07-23T15:18:25.192Z,98508.68
2017-07-23T15:20:54.645Z,98503.67
2017-07-23T15:23:24.112Z,98510.27
2017-07-23T15:25:53.576Z,98506.08
2017-07-23T15:28:23.024Z,98502.58
2017-07-23T15:30:52.472Z,98495.62
2017-07-23T15:33:21.737Z,98494.68
2017-07-23T15:35:51.221Z,98489.84
2017-07-23T15:38:20.739Z,98479.42
2017-07-23T15:40:50.184Z,98485.73
2017-07-23T15:43:19.649Z,98481.80
2017-07-23T15:45:49.086Z,98486.25
2017-07-23T15:48:18.530Z,98477.70
2017-07-23T15:50:48.000Z,98478.02
2017-07-23T15:53:17.463Z,98476.71
2017-07-23T15:55:46.914Z,98472.81
2017-07-23T15:58:16.373Z,98475.63
2017-07-23T16:00:45.635Z,98473.62
2017-07-23T16:03:15.082Z,98481.38
2017-07-23T16:05:44.541Z,98484.44
2017-07-23T16:08:14.013Z,98475.73
2017-07-23T16:10:43.477Z,98476.20
2017-07-23T16:13:12.919Z,98472.98
2017-07-23T16:15:42.399Z,98474.98
2017-07-23T16:18:11.840Z,98477.11
2017-07-23T16:20:41.284Z,98471.22
2017-07-23T16:23:10.744Z,98474.95
2017-07-23T16:25:40.192Z,98473.81
2017-07-23T16:28:09.636Z,98474.03
2017-07-23T16:30:39.081Z,98479.34
2017-07-23T16:33:08.549Z,98479.53
2017-07-23T16:35:38.700Z,98478.64
2017-07-23T16:38:08.167Z,98482.42
2017-07-23T16:40:37.607Z,98482.23
2017-07-23T16:43:07.073Z,98469.16
2017-07-23T16:45:36.544Z,98474.91
2017-07-23T16:48:06.018Z,98464.07
2017-07-23T16:50:35.477Z,98479.02
2017-07-23T16:53:04.922Z,98472.53
2017-07-23T16:55:34.385Z,98478.02
2017-07-23T16:58:03.838Z,98474.47
2017-07-23T17:00:33.289Z,98472.55
2017-07-23T17:03:02.737Z,98468.15
2017-07-23T17:05:32.220Z,98466.45
2017-07-23T17:08:01.741Z,98461.21
2017-07-23T17:10:31.181Z,98461.06
2017-07-23T17:13:00.441Z,98470.63
2017-07-23T17:15:29.904Z,98473.31
2017-07-23T17:17:59.349Z,98475.02
2017-07-23T17:20:28.801Z,98463.27
2017-07-23T17:22:58.304Z,98463.53
2017-07-23T17:25:27.769Z,98467.81
2017-07-23T17:27:57.223Z,98464.60
2017-07-23T17:30:26.691Z,98465.60
2017-07-23T17:32:56.155Z,98467.73
2017-07-23T17:35:25.596Z,98460.91
2017-07-23T17:37:55.056Z,98456.54
2017-07-23T17:40:24.539Z,98447.47
2017-07-23T17:42:53.999Z,98448.34
2017-07-23T17:45:23.458Z,98452.77
2017-07-23T17:47:52.924Z,98454.78
2017-07-23T17:50:23.024Z,98450.86
2017-07-23T17:52:52.460Z,98450.09
2017-07-23T17:55:21.940Z,98455.78
2017-07-23T17:57:51.420Z,98445.34
2017-07-23T18:00:20.921Z,98443.74
2017-07-23T18:02:50.198Z,98461.34
2017-07-23T18:05:19.672Z,98457.38
2017-07-23T18:07:49.154Z,98458.13
2017-07-23T18:10:18.637Z,98462.52
2017-07-23T18:12:48.088Z,98470.02
2017-07-23T18:15:17.581Z,98474.73
2017-07-23T18:17:47.021Z,98471.42
2017-07-23T18:20:16.510Z,98469.69
2017-07-23T18:22:45.951Z,98478.81
2017-07-23T18:25:15.441Z,98491.08
2017-07-23T18:27:44.970Z,98489.23
2017-07-23T18:30:14.457Z,98488.21
2017-07-23T18:32:43.925Z,98487.53
2017-07-23T18:35:13.454Z,98494.16
2017-07-23T18:37:42.902Z,98503.12
2017-07-23T18:40:13.137Z,98501.56
2017-07-23T18:42:42.666Z,98500.82
2017-07-23T18:45:12.189Z,98499.36
2017-07-23T18:47:41.676Z,98496.84
2017-07-23T18:50:11.186Z,98504.68
2017-07-23T18:52:40.701Z,98514.26
2017-07-23T18:55:10.204Z,98511.50
2017-07-23T18:57:39.661Z,98513.72
2017-07-23T19:00:09.298Z,98516.91
2017-07-23T19:02:38.770Z,98524.72
2017-07-23T19:05:07.961Z,98528.31
2017-07-23T19:07:37.400Z,98520.68
2017-07-23T19:10:07.460Z,98528.48
2017-07-23T19:12:36.914Z,98530.20
2017-07-23T19:15:06.248Z,98532.72
2017-07-23T19:17:35.697Z,98536.11
2017-07-23T19:20:05.306Z,98538.23
2017-07-23T19:22:34.762Z,98537.53
2017-07-23T19:25:04.284Z,98538.63
2017-07-23T19:27:33.729Z,98543.90
2017-07-23T19:30:03.211Z,98553.17
2017-07-23T19:32:32.754Z,98555.95
2017-07-23T19:35:02.343Z,98555.45
2017-07-23T19:37:31.821Z,98557.98
2017-07-23T19:40:01.257Z,98569.69
2017-07-23T19:42:30.709Z,98572.43
2017-07-23T19:45:00.156Z,98564.88
2017-07-23T19:47:29.598Z,98566.29
2017-07-23T19:49:59.052Z,98565.13
2017-07-23T19:52:28.492Z,98565.13
2017-07-23T19:54:57.946Z,98567.81
2017-07-23T19:57:27.393Z,98572.49
2017-07-23T19:59:56.866Z,98571.37
2017-07-23T20:02:26.382Z,98573.08
2017-07-23T20:04:55.836Z,98565.56
2017-07-23T20:07:25.320Z,98571.77
2017-07-23T20:09:54.755Z,98579.68
2017-07-23T20:12:24.198Z,98578.24
2017-07-23T20:14:54.458Z,98581.05
2017-07-23T20:17:23.924Z,98586.06
2017-07-23T20:19:53.482Z,98580.41
2017-07-23T20:22:22.936Z,98587.75
2017-07-23T20:24:52.418Z,98576.22
2017-07-23T20:27:22.558Z,98579.99
2017-07-23T20:29:51.994Z,98579.44
2017-07-23T20:32:21.443Z,98576.47
2017-07-23T20:34:50.881Z,98569.92
2017-07-23T20:37:20.334Z,98564.12
2017-07-23T20:39:49.780Z,98565.00
2017-07-23T20:42:19.208Z,98565.50
2017-07-23T20:44:48.669Z,98564.12
2017-07-23T20:47:18.109Z,98562.97
2017-07-23T20:49:47.552Z,98567.34
2017-07-23T20:52:17.012Z,98568.55
2017-07-23T20:54:46.214Z,98566.88
2017-07-23T20:57:15.648Z,98561.95
2017-07-23T20:59:45.104Z,98561.05
2017-07-23T21:02:14.549Z,98565.50
2017-07-23T21:04:43.998Z,98573.38
2017-07-23T21:07:13.471Z,98567.74
2017-07-23T21:09:42.932Z,98563.16
2017-07-23T21:12:12.382Z,98565.34
2017-07-23T21:14:41.853Z,98570.73
2017-07-23T21:17:11.307Z,98567.73
2017-07-23T21:19:40.743Z,98575.15
2017-07-23T21:22:10.187Z,98577.02
2017-07-23T21:24:39.641Z,98574.42
2017-07-23T21:27:09.158Z,98566.94
2017-07-23T21:29:38.594Z,98564.27
2017-07-23T21:32:08.056Z,98564.10
2017-07-23T21:34:37.496Z,98555.06
2017-07-23T21:37:06.948Z,98555.96
2017-07-23T21:39:36.450Z,98558.70
2017-07-23T21:42:05.901Z,98567.42
2017-07-23T21:44:35.364Z,98573.52
2017-07-23T21:47:04.824Z,98572.73
2017-07-23T21:49:34.264Z,98580.70
2017-07-23T21:52:03.720Z,98579.23
2017-07-23T21:54:33.169Z,98586.73
2017-07-23T21:57:02.625Z,98590.78
2017-07-23T21:59:32.060Z,98589.56
2017-07-23T22:02:01.520Z,98585.61
2017-07-23T22:04:30.977Z,98593.98
2017-07-23T22:07:00.424Z,98590.36
2017-07-23T22:09:29.868Z,98590.27
2017-07-23T22:11:59.316Z,98590.05
2017-07-23T22:14:28.780Z,98578.84
2017-07-23T22:16:58.220Z,98580.88
2017-07-23T22:19:27.679Z,98576.30
2017-07-23T22:21:57.113Z,98574.02
2017-07-23T22:24:26.581Z,98573.13
2017-07-23T22:26:56.036Z,98572.73
2017-07-23T22:29:25.488Z,98572.07
2017-07-23T22:31:54.940Z,98584.27
2017-07-23T22:34:24.382Z,98583.09
2017-07-23T22:36:53.840Z,98582.46
2017-07-23T22:39:23.274Z,98577.22
2017-07-23T22:41:52.727Z,98571.55
2017-07-23T22:44:22.165Z,98565.08
2017-07-23T22:46:51.610Z,98562.23
2017-07-23T22:49:21.075Z,98559.20
2017-07-23T22:51:50.513Z,98568.26
2017-07-23T22:54:19.957Z,98561.44
2017-07-23T22:56:49.403Z,98569.59
2017-07-23T22:59:18.914Z,98570.66
2017-07-23T23:01:48.349Z,98576.28
2017-07-23T23:04:17.796Z,98575.58
2017-07-23T23:06:47.266Z,98576.19
2017-07-23T23:09:16.698Z,98571.71
2017-07-23T23:11:46.120Z,98562.92
2017-07-23T23:14:15.568Z,98569.88
2017-07-23T23:16:45.012Z,98550.80
2017-07-23T23:19:14.458Z,98542.41
2017-07-23T23:21:43.906Z,98539.18
2017-07-23T23:24:13.357Z,98528.64
2017-07-23T23:26:42.618Z,98527.93
2017-07-23T23:29:12.092Z,98524.69
2017-07-23T23:31:41.541Z,98513.81
2017-07-23T23:34:10.984Z,98513.15
2017-07-23T23:36:40.456Z,98506.86
2017-07-23T23:39:09.928Z,98515.09
2017-07-23T23:41:39.367Z,98507.30
2017-07-23T23:44:08.811Z,98503.66
2017-07-23T23:46:38.264Z,98498.89
2017-07-23T23:49:07.698Z,98492.45
2017-07-23T23:51:37.159Z,98483.44
2017-07-23T23:54:06.605Z,98485.84
2017-07-23T23:56:36.044Z,98481.16
2017-07-23T23:59:05.494Z,98483.22
